McBeth, Texas
Current Conditions -  °F | °C
As of 7:53 PM on Wednesday 22 Oct 2014 (Local Time) from KLBX Reporting Station
Clear Clear  
Wind Chill: 68°   Ceiling: Unl
Heat Index: 68°   Visibility: 10mi
Dew Point: 61°   Wind: 5mph
Humidity: 78%   Direction: 100°E
Pressure: 30.06"   Gusts: NA
Location:  29.1898°N, 95.4754°W
Report Text: KLBX 230053Z AUTO 10004KT 10SM CLR 20/16 A3006 RMK AO2 SLP178 T02000161
Loading
Personal Weather Stations






























Interactive Weather Map
Tropical Storm Tracking
New forecast layout! Learn more

10-Day Weather Forecast

Advertisements
Track Severe Weather on mobile